createdAt,value
2023-01-18T00:00:20.096Z,67.06
2023-01-18T00:03:26.249Z,67.44
2023-01-18T00:06:32.459Z,67.17
2023-01-18T00:09:38.644Z,67.33
2023-01-18T00:12:45.103Z,67.21
2023-01-18T00:15:51.411Z,66.83
2023-01-18T00:18:56.966Z,67.01
2023-01-18T00:22:03.419Z,67.12
2023-01-18T00:25:12.596Z,66.99
2023-01-18T00:28:21.858Z,67.06
2023-01-18T00:31:28.443Z,66.68
2023-01-18T00:34:34.888Z,66.86
2023-01-18T00:37:39.428Z,67.04
2023-01-18T00:40:47.969Z,67.37
2023-01-18T00:43:55.557Z,67.15
2023-01-18T00:47:01.851Z,67.20
2023-01-18T00:50:06.889Z,67.04
2023-01-18T00:53:13.085Z,67.14
2023-01-18T00:56:22.831Z,66.96
2023-01-18T00:59:29.243Z,66.89
2023-01-18T01:02:35.436Z,67.08
2023-01-18T01:05:59.400Z,67.57
2023-01-18T01:09:05.638Z,67.69
2023-01-18T01:12:29.423Z,67.58
2023-01-18T01:15:53.214Z,67.51
2023-01-18T01:19:17.095Z,67.31
2023-01-18T01:22:40.871Z,67.14
2023-01-18T01:26:08.084Z,67.33
2023-01-18T01:29:14.390Z,67.55
2023-01-18T01:32:20.655Z,67.81
2023-01-18T01:35:25.207Z,68.04
2023-01-18T01:38:32.077Z,68.12
2023-01-18T01:41:38.791Z,67.51
2023-01-18T01:44:50.263Z,67.04
2023-01-18T01:47:58.523Z,67.05
2023-01-18T01:51:05.010Z,67.18
2023-01-18T01:54:16.060Z,67.02
2023-01-18T01:57:26.055Z,66.83
2023-01-18T02:00:32.662Z,66.56
2023-01-18T02:03:42.674Z,66.52
2023-01-18T02:06:49.031Z,66.34
2023-01-18T02:09:53.932Z,66.06
2023-01-18T02:13:01.808Z,66.06
2023-01-18T02:16:15.052Z,65.66
2023-01-18T02:20:04.815Z,65.73
2023-01-18T02:23:38.614Z,66.32
2023-01-18T02:27:00.895Z,66.63
2023-01-18T02:30:18.243Z,67.12
2023-01-18T02:33:34.303Z,67.02
2023-01-18T02:36:43.351Z,66.79
2023-01-18T02:39:59.869Z,66.91
2023-01-18T02:43:27.596Z,66.64
2023-01-18T02:46:34.984Z,66.31
2023-01-18T02:49:41.339Z,66.22
2023-01-18T02:52:47.438Z,66.19
2023-01-18T02:56:00.032Z,66.31
2023-01-18T02:59:13.263Z,66.28
2023-01-18T03:02:21.998Z,66.35
2023-01-18T03:05:31.108Z,66.25
2023-01-18T03:08:42.506Z,66.07
2023-01-18T03:11:58.956Z,65.89
2023-01-18T03:15:13.145Z,66.08
2023-01-18T03:18:24.841Z,66.12
2023-01-18T03:21:53.436Z,65.92
2023-01-18T03:24:59.948Z,65.99
2023-01-18T03:28:28.013Z,66.22
2023-01-18T03:31:58.004Z,66.28
2023-01-18T03:35:08.987Z,66.25
2023-01-18T03:38:15.939Z,66.19
2023-01-18T03:41:24.325Z,66.13
2023-01-18T03:44:36.485Z,66.03
2023-01-18T03:47:42.955Z,66.18
2023-01-18T03:50:53.863Z,66.34
2023-01-18T03:54:07.513Z,66.36
2023-01-18T03:57:21.732Z,66.55
2023-01-18T04:00:28.271Z,66.69
2023-01-18T04:03:35.231Z,66.79
2023-01-18T04:06:41.528Z,67.01
2023-01-18T04:09:46.050Z,67.19
2023-01-18T04:12:52.284Z,67.48
2023-01-18T04:15:58.574Z,67.58
2023-01-18T04:19:03.145Z,67.75
2023-01-18T04:22:09.902Z,67.99
2023-01-18T04:25:16.362Z,68.06
2023-01-18T04:28:25.476Z,68.27
2023-01-18T04:31:31.764Z,68.33
2023-01-18T04:34:38.083Z,68.10
2023-01-18T04:37:42.660Z,67.68
2023-01-18T04:40:48.974Z,67.60
2023-01-18T04:43:53.575Z,67.44
2023-01-18T04:46:59.816Z,67.31
2023-01-18T04:50:07.754Z,66.98
2023-01-18T04:53:13.975Z,66.97
2023-01-18T04:56:20.543Z,66.98
2023-01-18T04:59:28.544Z,66.81
2023-01-18T05:02:34.790Z,66.68
2023-01-18T05:05:41.282Z,66.57
2023-01-18T05:08:47.610Z,66.61
2023-01-18T05:11:52.487Z,66.47
2023-01-18T05:14:58.795Z,66.76
2023-01-18T05:18:03.296Z,66.73
2023-01-18T05:21:09.691Z,66.89
2023-01-18T05:24:14.202Z,66.97
2023-01-18T05:27:20.458Z,67.01
2023-01-18T05:30:26.724Z,66.76
2023-01-18T05:33:31.274Z,66.62
2023-01-18T05:36:37.472Z,66.62
2023-01-18T05:39:43.645Z,67.06
2023-01-18T05:42:50.195Z,67.15
2023-01-18T05:45:56.651Z,67.25
2023-01-18T05:49:02.946Z,67.08
2023-01-18T05:52:08.362Z,66.86
2023-01-18T05:55:15.930Z,67.08
2023-01-18T05:58:22.220Z,67.24
2023-01-18T06:01:29.193Z,67.16
2023-01-18T06:04:36.650Z,66.92
2023-01-18T06:07:43.064Z,67.35
2023-01-18T06:10:53.056Z,67.49
2023-01-18T06:13:59.254Z,67.56
2023-01-18T06:17:05.495Z,67.26
2023-01-18T06:20:12.654Z,66.82
2023-01-18T06:23:19.011Z,66.89
2023-01-18T06:26:25.250Z,66.67
2023-01-18T06:29:31.530Z,66.57
2023-01-18T06:32:36.072Z,66.80
2023-01-18T06:35:43.355Z,67.08
2023-01-18T06:38:49.664Z,66.84
2023-01-18T06:41:54.103Z,66.88
2023-01-18T06:45:00.615Z,66.92
2023-01-18T06:48:07.759Z,67.11
2023-01-18T06:51:14.171Z,67.04
2023-01-18T06:54:18.703Z,66.83
2023-01-18T06:57:25.119Z,67.01
2023-01-18T07:00:30.072Z,66.87
2023-01-18T07:03:36.693Z,66.87
2023-01-18T07:06:43.099Z,66.60
2023-01-18T07:09:49.464Z,66.71
2023-01-18T07:12:54.040Z,66.77
2023-01-18T07:16:02.110Z,66.74
2023-01-18T07:19:08.777Z,66.65
2023-01-18T07:22:15.476Z,66.64
2023-01-18T07:25:22.690Z,66.60
2023-01-18T07:28:28.956Z,67.13
2023-01-18T07:31:35.261Z,67.20
2023-01-18T07:34:40.302Z,67.42
2023-01-18T07:37:53.321Z,67.73
2023-01-18T07:41:04.853Z,67.51
2023-01-18T07:44:11.966Z,67.15
2023-01-18T07:47:18.254Z,67.12
2023-01-18T07:50:23.142Z,67.29
2023-01-18T07:53:33.388Z,67.58
2023-01-18T07:56:40.370Z,67.30
2023-01-18T07:59:46.603Z,67.33
2023-01-18T08:02:56.367Z,67.40
2023-01-18T08:06:05.146Z,67.20
2023-01-18T08:09:11.514Z,67.03
2023-01-18T08:12:18.621Z,67.13
2023-01-18T08:15:24.793Z,67.32
2023-01-18T08:18:31.066Z,67.18
2023-01-18T08:21:35.690Z,67.35
2023-01-18T08:24:41.922Z,67.50
2023-01-18T08:27:48.292Z,67.28
2023-01-18T08:30:52.948Z,67.21
2023-01-18T08:33:59.185Z,67.35
2023-01-18T08:37:05.590Z,67.30
2023-01-18T08:40:11.333Z,67.24
2023-01-18T08:43:17.603Z,67.33
2023-01-18T08:46:22.321Z,67.23
2023-01-18T08:49:28.819Z,67.21
2023-01-18T08:52:35.703Z,66.90
2023-01-18T08:55:42.016Z,66.77
2023-01-18T08:58:47.481Z,66.85
2023-01-18T09:01:54.174Z,67.16
2023-01-18T09:05:00.457Z,66.92
2023-01-18T09:08:07.042Z,66.77
2023-01-18T09:11:13.954Z,66.60
2023-01-18T09:14:22.175Z,66.32
2023-01-18T09:17:28.410Z,66.35
2023-01-18T09:20:36.157Z,66.33
2023-01-18T09:23:43.699Z,66.34
2023-01-18T09:26:53.803Z,66.25
2023-01-18T09:30:00.268Z,66.20
2023-01-18T09:33:06.709Z,66.32
2023-01-18T09:36:12.810Z,66.23
2023-01-18T09:39:19.093Z,66.46
2023-01-18T09:42:25.188Z,66.95
2023-01-18T09:45:35.578Z,67.85
2023-01-18T09:48:45.217Z,68.64
2023-01-18T09:52:03.692Z,69.02
2023-01-18T09:55:22.191Z,69.07
2023-01-18T09:58:42.861Z,68.51
2023-01-18T10:01:50.307Z,68.09
2023-01-18T10:05:00.518Z,67.65
2023-01-18T10:08:14.902Z,67.66
2023-01-18T10:11:27.377Z,67.39
2023-01-18T10:14:48.017Z,67.70
2023-01-18T10:18:00.811Z,68.03
2023-01-18T10:21:09.141Z,68.04
2023-01-18T10:24:28.892Z,67.98
2023-01-18T10:28:09.363Z,67.82
2023-01-18T10:31:31.397Z,68.24
2023-01-18T10:34:42.365Z,67.91
2023-01-18T10:37:49.113Z,67.84
2023-01-18T10:40:59.060Z,67.70
2023-01-18T10:44:05.771Z,67.51
2023-01-18T10:47:13.082Z,67.03
2023-01-18T10:50:22.646Z,66.91
2023-01-18T10:53:34.065Z,66.79
2023-01-18T10:56:40.411Z,67.43
2023-01-18T10:59:45.017Z,67.94
2023-01-18T11:02:52.684Z,68.79
2023-01-18T11:06:06.482Z,69.27
2023-01-18T11:09:43.875Z,68.77
2023-01-18T11:12:53.140Z,68.96
2023-01-18T11:16:20.899Z,68.94
2023-01-18T11:19:27.176Z,68.56
2023-01-18T11:22:34.825Z,68.52
2023-01-18T11:25:46.942Z,68.46
2023-01-18T11:29:01.256Z,68.23
2023-01-18T11:32:15.917Z,68.19
2023-01-18T11:35:34.417Z,68.06
2023-01-18T11:38:41.526Z,67.87
2023-01-18T11:41:48.856Z,67.80
2023-01-18T11:45:03.225Z,67.95
2023-01-18T11:48:22.884Z,68.39
2023-01-18T11:51:39.012Z,68.08
2023-01-18T11:54:47.018Z,68.08
2023-01-18T11:57:54.594Z,67.92
2023-01-18T12:01:27.133Z,67.33
2023-01-18T12:04:49.725Z,67.88
2023-01-18T12:08:10.864Z,68.59
2023-01-18T12:11:36.996Z,68.02
2023-01-18T12:14:59.631Z,67.44
2023-01-18T12:18:22.310Z,67.25
2023-01-18T12:21:38.707Z,67.30
2023-01-18T12:24:59.523Z,67.19
2023-01-18T12:28:17.429Z,67.58
2023-01-18T12:31:35.773Z,67.11
2023-01-18T12:34:53.819Z,66.60
2023-01-18T12:38:11.009Z,66.02
2023-01-18T12:41:29.309Z,65.95
2023-01-18T12:44:55.304Z,66.08
2023-01-18T12:48:06.613Z,66.21
2023-01-18T12:51:16.927Z,66.33
2023-01-18T12:54:30.040Z,66.10
2023-01-18T12:57:37.012Z,65.83
2023-01-18T13:00:49.926Z,65.41
2023-01-18T13:04:03.435Z,65.49
2023-01-18T13:07:15.551Z,66.00
2023-01-18T13:10:24.917Z,66.31
2023-01-18T13:13:32.292Z,65.84
2023-01-18T13:16:46.920Z,66.01
2023-01-18T13:19:58.790Z,66.40
2023-01-18T13:23:14.967Z,66.34
2023-01-18T13:26:26.129Z,66.43
2023-01-18T13:29:32.844Z,66.79
2023-01-18T13:32:42.491Z,66.86
2023-01-18T13:35:56.678Z,66.52
2023-01-18T13:39:09.079Z,66.43
2023-01-18T13:42:39.410Z,66.30
2023-01-18T13:49:38.676Z,66.51
2023-01-18T13:52:45.141Z,66.18
2023-01-18T13:56:10.483Z,66.20
2023-01-18T13:59:26.531Z,66.29
2023-01-18T14:02:34.272Z,66.68
2023-01-18T14:05:47.185Z,66.89
2023-01-18T14:08:56.191Z,66.50
2023-01-18T14:12:02.684Z,66.47
2023-01-18T14:15:26.753Z,66.08
2023-01-18T14:18:33.628Z,66.21
2023-01-18T14:21:50.934Z,66.19
2023-01-18T14:25:17.276Z,66.13
2023-01-18T14:28:27.578Z,66.02
2023-01-18T14:31:38.658Z,66.01
2023-01-18T14:34:45.143Z,65.98
2023-01-18T14:37:52.088Z,65.91
2023-01-18T14:41:00.687Z,65.88
2023-01-18T14:44:14.632Z,65.93
2023-01-18T14:47:24.223Z,65.90
2023-01-18T14:50:37.729Z,66.07
2023-01-18T14:53:48.688Z,66.20
2023-01-18T14:57:03.605Z,66.18
2023-01-18T15:00:20.492Z,66.28
2023-01-18T15:03:28.875Z,66.10
2023-01-18T15:06:39.961Z,66.20
2023-01-18T15:09:47.476Z,66.27
2023-01-18T15:12:56.877Z,66.46
2023-01-18T15:16:04.163Z,66.64
2023-01-18T15:19:17.067Z,66.55
2023-01-18T15:22:27.677Z,66.59
2023-01-18T15:25:35.878Z,66.41
2023-01-18T15:28:42.163Z,66.39
2023-01-18T15:31:54.885Z,66.65
2023-01-18T15:35:03.028Z,66.94
2023-01-18T15:38:10.830Z,66.94
2023-01-18T15:41:18.255Z,66.95
2023-01-18T15:44:35.230Z,66.88
2023-01-18T15:47:48.646Z,66.95
2023-01-18T15:50:58.130Z,67.02
2023-01-18T15:54:04.444Z,66.88
2023-01-18T15:57:19.204Z,66.49
2023-01-18T16:00:45.951Z,66.28
2023-01-18T16:04:00.833Z,65.89
2023-01-18T16:07:27.321Z,65.74
2023-01-18T16:10:33.663Z,65.15
2023-01-18T16:13:43.037Z,65.07
2023-01-18T16:16:49.957Z,64.96
2023-01-18T16:19:58.712Z,64.88
2023-01-18T16:23:09.968Z,64.92
2023-01-18T16:26:19.322Z,64.66
2023-01-18T16:29:25.666Z,64.65
2023-01-18T16:32:32.194Z,64.87
2023-01-18T16:35:40.013Z,64.97
2023-01-18T16:38:46.559Z,64.54
2023-01-18T16:41:55.628Z,64.40
2023-01-18T16:45:02.204Z,63.97
2023-01-18T16:48:15.568Z,64.17
2023-01-18T16:51:21.921Z,64.22
2023-01-18T16:54:26.447Z,64.30
2023-01-18T16:57:33.027Z,64.59
2023-01-18T17:00:53.119Z,64.68
2023-01-18T17:03:59.531Z,64.14
2023-01-18T17:07:06.794Z,63.75
2023-01-18T17:10:22.279Z,64.25
2023-01-18T17:13:28.516Z,64.68
2023-01-18T17:16:34.953Z,64.84
2023-01-18T17:19:43.902Z,64.74
2023-01-18T17:22:50.753Z,64.08
2023-01-18T17:25:58.569Z,64.12
2023-01-18T17:29:05.994Z,64.56
2023-01-18T17:32:13.498Z,64.73
2023-01-18T17:35:22.937Z,64.53
2023-01-18T17:41:37.205Z,65.33
2023-01-18T17:44:43.499Z,63.80
2023-01-18T17:47:47.996Z,63.86
2023-01-18T17:50:54.175Z,64.54
2023-01-18T17:54:00.819Z,64.52
2023-01-18T17:57:09.020Z,64.44
2023-01-18T18:00:17.366Z,65.29
2023-01-18T18:03:23.702Z,64.50
2023-01-18T18:06:31.623Z,64.14
2023-01-18T18:09:43.635Z,64.75
2023-01-18T18:12:49.904Z,63.86
2023-01-18T18:15:56.174Z,63.19
2023-01-18T18:19:00.692Z,62.70
2023-01-18T18:22:07.333Z,63.51
2023-01-18T18:25:13.935Z,63.17
2023-01-18T18:28:20.464Z,63.63
2023-01-18T18:31:26.710Z,64.33
2023-01-18T18:34:31.551Z,63.96
2023-01-18T18:37:37.760Z,64.41
2023-01-18T18:40:44.050Z,64.46
2023-01-18T18:43:48.682Z,64.35
2023-01-18T18:46:55.503Z,64.96
2023-01-18T18:50:01.889Z,65.62
2023-01-18T18:53:06.962Z,64.94
2023-01-18T18:56:13.354Z,64.55
2023-01-18T18:59:19.598Z,64.31
2023-01-18T19:02:25.765Z,64.23
2023-01-18T19:05:33.321Z,64.21
2023-01-18T19:08:39.726Z,64.38
2023-01-18T19:11:54.278Z,64.41
2023-01-18T19:15:01.305Z,64.78
2023-01-18T19:18:05.823Z,64.88
2023-01-18T19:21:12.067Z,65.34
2023-01-18T19:24:18.286Z,65.39
2023-01-18T19:27:25.351Z,65.29
2023-01-18T19:30:33.373Z,65.48
2023-01-18T19:33:39.713Z,65.54
2023-01-18T19:36:44.305Z,65.81
2023-01-18T19:39:50.578Z,65.71
2023-01-18T19:42:55.945Z,65.51
2023-01-18T19:46:05.781Z,65.49
2023-01-18T19:49:12.054Z,65.86
2023-01-18T19:52:18.319Z,66.19
2023-01-18T19:55:22.841Z,66.51
2023-01-18T19:58:31.064Z,66.50
2023-01-18T20:01:37.726Z,65.75
2023-01-18T20:04:44.535Z,65.26
2023-01-18T20:07:51.292Z,65.55
2023-01-18T20:11:04.298Z,65.47
2023-01-18T20:14:10.884Z,65.67
2023-01-18T20:17:17.600Z,65.70
2023-01-18T20:20:31.731Z,65.82
2023-01-18T20:23:39.444Z,66.09
2023-01-18T20:26:47.462Z,66.26
2023-01-18T20:29:54.027Z,66.72
2023-01-18T20:33:00.606Z,67.23
2023-01-18T20:36:08.334Z,67.47
2023-01-18T20:39:16.335Z,67.35
2023-01-18T20:42:22.686Z,67.28
2023-01-18T20:45:27.479Z,66.91
2023-01-18T20:48:35.108Z,66.78
2023-01-18T20:51:41.721Z,66.54
2023-01-18T20:54:48.103Z,66.18
2023-01-18T20:57:54.532Z,66.28
2023-01-18T21:01:05.096Z,66.16
2023-01-18T21:04:11.539Z,65.96
2023-01-18T21:07:17.731Z,65.97
2023-01-18T21:10:38.661Z,65.92
2023-01-18T21:13:45.175Z,65.95
2023-01-18T21:16:49.725Z,65.68
2023-01-18T21:19:55.979Z,65.77
2023-01-18T21:23:02.930Z,65.92
2023-01-18T21:26:11.587Z,65.95
2023-01-18T21:29:18.066Z,65.76
2023-01-18T21:32:24.319Z,66.26
2023-01-18T21:35:30.570Z,66.73
2023-01-18T21:38:37.754Z,67.01
2023-01-18T21:42:01.421Z,67.17
2023-01-18T21:45:27.966Z,66.87
2023-01-18T21:48:34.579Z,66.90
2023-01-18T21:51:58.519Z,67.20
2023-01-18T21:55:04.937Z,66.65
2023-01-18T21:58:28.562Z,66.08
2023-01-18T22:01:39.132Z,66.21
2023-01-18T22:05:01.715Z,66.64
2023-01-18T22:08:09.543Z,66.65
2023-01-18T22:11:15.909Z,66.48
2023-01-18T22:14:20.465Z,66.21
2023-01-18T22:17:27.187Z,66.31
2023-01-18T22:20:33.458Z,65.74
2023-01-18T22:23:38.029Z,65.80
2023-01-18T22:26:44.749Z,65.92
2023-01-18T22:29:51.250Z,65.79
2023-01-18T22:32:57.502Z,65.81
2023-01-18T22:36:04.650Z,65.81
2023-01-18T22:39:12.044Z,65.90
2023-01-18T22:42:19.020Z,65.76
2023-01-18T22:45:25.321Z,65.84
2023-01-18T22:48:29.809Z,65.66
2023-01-18T22:51:36.600Z,65.73
2023-01-18T22:54:43.055Z,65.82
2023-01-18T22:57:49.329Z,65.66
2023-01-18T23:00:53.868Z,65.50
2023-01-18T23:04:02.291Z,65.76
2023-01-18T23:07:08.632Z,65.89
2023-01-18T23:10:13.357Z,65.77
2023-01-18T23:13:19.638Z,65.94
2023-01-18T23:16:40.540Z,65.67
2023-01-18T23:19:46.760Z,65.77
2023-01-18T23:22:53.018Z,65.88
2023-01-18T23:25:57.937Z,66.09
2023-01-18T23:29:04.308Z,66.35
2023-01-18T23:32:09.246Z,66.57
2023-01-18T23:35:15.450Z,66.93
2023-01-18T23:38:21.738Z,66.97
2023-01-18T23:41:43.776Z,66.67
2023-01-18T23:45:07.300Z,66.51
2023-01-18T23:48:33.099Z,66.44
2023-01-18T23:51:56.848Z,66.58
2023-01-18T23:55:03.137Z,66.68
2023-01-18T23:58:07.645Z,66.74
